Time;durP1;ratioP1;P1;durP2;ratioP2;P2;SDS_P1;SDS_P2;PMS_P1;PMS_P2;Temp;Humidity;BMP_temperature;BMP_pressure;BME280_temperature;BME280_humidity;BME280_pressure;Samples;Min_cycle;Max_cycle;Signal;HPM_P1;HPM_P2
2022/12/22 03:27:09;;;;;;;3.97;1.23;;;;;;;8.18;100.00;98082.69;5009039;28;20037;-60
2022/12/22 03:29:35;;;;;;;3.35;1.10;;;;;;;8.12;100.00;98074.41;5005312;28;20037;-60
2022/12/22 03:32:00;;;;;;;2.45;0.98;;;;;;;8.13;100.00;98067.97;5014135;28;20125;-60
2022/12/22 03:34:25;;;;;;;3.15;1.20;;;;;;;8.18;100.00;98064.66;5010595;28;20497;-60
2022/12/22 03:36:51;;;;;;;5.40;1.00;;;;;;;8.30;100.00;98064.88;5004295;28;20018;-60
2022/12/22 03:39:16;;;;;;;5.13;0.90;;;;;;;8.39;100.00;98069.06;5006519;28;20072;-60
2022/12/22 03:47:09;;;;;;;1.23;0.85;;;;;;;8.46;100.00;98056.41;5001466;28;20106;-59
2022/12/22 03:49:35;;;;;;;3.90;0.90;;;;;;;8.48;100.00;98040.84;5001833;28;20074;-59
2022/12/22 03:52:00;;;;;;;2.33;0.80;;;;;;;8.51;100.00;98029.66;5001765;28;20026;-59
2022/12/22 03:54:25;;;;;;;2.00;0.98;;;;;;;8.55;100.00;98044.38;5010075;28;20030;-59
2022/12/22 03:56:52;;;;;;;2.70;1.05;;;;;;;8.58;100.00;98043.13;5011276;28;20029;-59
2022/12/22 03:59:18;;;;;;;1.45;0.68;;;;;;;8.62;100.00;98046.22;5013071;28;20034;-58
2022/12/22 04:01:49;;;;;;;1.65;0.77;;;;;;;8.67;100.00;98046.41;5003607;28;20352;-59
2022/12/22 04:04:17;;;;;;;2.65;1.40;;;;;;;8.72;100.00;98052.00;5003420;28;20028;-59
2022/12/22 04:06:43;;;;;;;4.63;1.20;;;;;;;8.74;100.00;98049.94;5003250;28;20077;-59
2022/12/22 04:09:09;;;;;;;1.30;0.63;;;;;;;8.83;100.00;98039.75;5004890;28;20022;-59
2022/12/22 04:14:20;;;;;;;0.90;0.63;;;;;;;8.88;100.00;98056.13;5002482;28;20050;-59
2022/12/22 04:16:45;;;;;;;2.35;0.43;;;;;;;8.96;100.00;98053.19;5005225;28;20033;-59
2022/12/22 04:19:11;;;;;;;1.25;0.60;;;;;;;8.85;100.00;98046.59;5001152;28;20381;-56
2022/12/22 04:21:37;;;;;;;1.13;0.40;;;;;;;8.71;100.00;98040.41;5005381;28;20464;-58
2022/12/22 04:24:03;;;;;;;1.38;0.50;;;;;;;8.71;100.00;98061.16;5003737;28;20018;-56
2022/12/22 04:26:28;;;;;;;0.85;0.50;;;;;;;8.75;100.00;98065.91;5001097;28;20538;-57
2022/12/22 04:28:54;;;;;;;1.05;0.77;;;;;;;8.78;100.00;98048.50;4994935;28;20053;-57
2022/12/22 04:31:21;;;;;;;1.35;0.77;;;;;;;8.78;100.00;98035.84;4994975;28;20068;-57
2022/12/22 04:33:46;;;;;;;0.73;0.60;;;;;;;8.84;100.00;98033.34;5024846;28;20429;-58
2022/12/22 04:36:15;;;;;;;2.92;0.80;;;;;;;8.84;100.00;98036.03;5007629;28;20019;-58
2022/12/22 04:38:40;;;;;;;1.50;0.47;;;;;;;8.86;100.00;98029.38;5000212;28;20049;-58
2022/12/22 04:41:07;;;;;;;0.90;0.60;;;;;;;8.89;100.00;98041.63;4998969;28;20420;-58
2022/12/22 04:43:33;;;;;;;6.15;0.82;;;;;;;8.79;100.00;98031.25;4995797;28;20053;-60
2022/12/22 04:45:59;;;;;;;1.88;0.98;;;;;;;8.63;100.00;98024.44;5005155;28;20477;-61
2022/12/22 04:48:26;;;;;;;2.72;0.85;;;;;;;8.60;100.00;98051.00;5003248;28;20026;-60
2022/12/22 04:50:53;;;;;;;2.10;0.88;;;;;;;8.60;100.00;98038.34;5003112;28;20022;-60
2022/12/22 04:53:20;;;;;;;3.53;0.73;;;;;;;8.54;100.00;98034.63;4997259;28;20019;-61
2022/12/22 04:55:54;;;;;;;1.85;0.85;;;;;;;8.61;100.00;98034.59;5008841;28;20363;-60
2022/12/22 04:58:19;;;;;;;2.20;0.70;;;;;;;8.59;100.00;98028.59;5002525;28;20033;-61
2022/12/22 05:00:45;;;;;;;3.65;0.80;;;;;;;8.56;100.00;98015.53;5001187;28;20014;-60
2022/12/22 05:03:10;;;;;;;3.80;0.73;;;;;;;8.51;100.00;98026.13;5008057;28;20032;-60
2022/12/22 05:05:36;;;;;;;1.60;0.70;;;;;;;8.58;100.00;98026.13;5009185;28;20029;-59
2022/12/22 05:08:02;;;;;;;3.22;0.85;;;;;;;8.52;100.00;98027.78;5004661;28;20034;-60
2022/12/22 05:10:28;;;;;;;3.72;0.80;;;;;;;8.53;100.00;98016.78;5003247;28;20033;-60
2022/12/22 05:12:53;;;;;;;0.85;0.65;;;;;;;8.59;100.00;98015.09;5007107;28;20041;-61
2022/12/22 05:15:20;;;;;;;2.42;1.02;;;;;;;8.51;100.00;98018.88;5000882;28;20481;-60
2022/12/22 05:17:45;;;;;;;3.45;1.20;;;;;;;8.49;100.00;98012.88;5005522;28;20080;-59
2022/12/22 05:20:11;;;;;;;3.63;0.88;;;;;;;8.51;100.00;98020.72;5014414;28;20042;-59
2022/12/22 05:22:37;;;;;;;2.42;0.77;;;;;;;8.49;100.00;98018.25;5005369;28;20030;-59
2022/12/22 05:25:02;;;;;;;2.25;0.95;;;;;;;8.45;100.00;98013.47;4998325;28;20062;-59
2022/12/22 05:27:28;;;;;;;4.30;0.98;;;;;;;8.43;100.00;98018.25;5006287;28;20048;-59
2022/12/22 05:29:53;;;;;;;1.27;0.70;;;;;;;8.44;100.00;98022.63;5000248;28;20441;-59
2022/12/22 05:32:18;;;;;;;2.55;0.85;;;;;;;8.46;100.00;98026.75;4995327;28;20026;-59
2022/12/22 05:34:44;;;;;;;2.83;0.98;;;;;;;8.45;100.00;98035.88;4999384;28;20052;-60
2022/12/22 05:37:09;;;;;;;1.10;0.90;;;;;;;8.44;100.00;98028.84;5002668;28;20034;-60
2022/12/22 05:39:34;;;;;;;4.15;1.00;;;;;;;8.49;100.00;98026.34;5004315;28;20381;-61
2022/12/22 05:42:00;;;;;;;1.35;0.82;;;;;;;8.50;100.00;98029.84;5001321;28;20022;-60
2022/12/22 05:44:25;;;;;;;3.05;0.95;;;;;;;8.50;100.00;98022.59;5007010;28;20018;-60
2022/12/22 05:46:51;;;;;;;3.22;0.80;;;;;;;8.49;100.00;98025.53;5001622;28;20026;-60
2022/12/22 05:49:17;;;;;;;2.38;1.00;;;;;;;8.51;100.00;98016.19;4998615;28;20029;-60
2022/12/22 05:51:42;;;;;;;4.97;1.13;;;;;;;8.47;100.00;98023.03;4993134;28;20463;-60
2022/12/22 05:54:09;;;;;;;3.88;1.90;;;;;;;8.47;100.00;98032.97;5010111;28;20045;-60
2022/12/22 05:56:34;;;;;;;2.22;1.30;;;;;;;8.48;100.00;98019.28;5006804;28;20077;-60
2022/12/22 05:59:00;;;;;;;4.68;1.20;;;;;;;8.52;100.00;98020.53;5005239;28;20022;-60
2022/12/22 06:01:25;;;;;;;4.63;0.90;;;;;;;8.47;100.00;98017.63;5004345;28;20084;-61
2022/12/22 06:03:50;;;;;;;4.78;1.30;;;;;;;8.51;100.00;98000.00;5001585;28;20040;-60
2022/12/22 06:06:16;;;;;;;1.90;0.70;;;;;;;8.59;100.00;97998.09;5005300;28;20041;-60
2022/12/22 06:08:41;;;;;;;3.67;0.93;;;;;;;8.59;100.00;98004.31;4997229;28;20014;-60
2022/12/22 06:11:07;;;;;;;2.40;0.80;;;;;;;8.65;100.00;98006.19;5000630;28;20383;-60
2022/12/22 06:13:32;;;;;;;1.35;0.82;;;;;;;8.69;100.00;98003.91;5006286;28;20036;-60
2022/12/22 06:15:57;;;;;;;1.55;0.80;;;;;;;8.71;100.00;98002.66;5007786;28;20052;-60
2022/12/22 06:18:23;;;;;;;2.70;0.80;;;;;;;8.70;100.00;98000.19;4999681;28;20068;-61
2022/12/22 06:20:52;;;;;;;3.15;1.00;;;;;;;8.69;100.00;98010.13;5004492;28;20033;-61
2022/12/22 06:23:18;;;;;;;5.13;1.02;;;;;;;8.65;100.00;97997.28;5002388;28;20109;-61
2022/12/22 06:25:54;;;;;;;3.30;1.10;;;;;;;8.53;100.00;97995.22;5005714;28;20125;-61
2022/12/22 06:28:20;;;;;;;3.08;1.10;;;;;;;8.48;100.00;98002.28;4995717;28;20037;-61
2022/12/22 06:30:46;;;;;;;4.05;0.85;;;;;;;8.47;100.00;97997.94;5052720;22;20044;-87
2022/12/22 06:33:12;;;;;;;5.88;1.17;;;;;;;8.33;100.00;97968.28;5057812;28;20053;-87
2022/12/22 06:35:37;;;;;;;5.82;1.40;;;;;;;8.52;100.00;97990.88;5067453;28;20037;-73
2022/12/22 06:38:02;;;;;;;6.90;1.05;;;;;;;8.46;100.00;97980.94;5034048;28;20026;-73
2022/12/22 06:40:27;;;;;;;3.95;0.68;;;;;;;8.71;100.00;97996.44;5047265;28;20025;-73
2022/12/22 06:43:08;;;;;;;4.80;1.10;;;;;;;8.70;100.00;97979.44;5040660;28;20021;-73
2022/12/22 06:45:38;;;;;;;5.75;1.08;;;;;;;8.75;100.00;97989.56;5026527;28;20029;-72
2022/12/22 06:48:04;;;;;;;3.40;1.20;;;;;;;8.83;100.00;98004.69;5029969;28;20029;-74
2022/12/22 06:50:30;;;;;;;3.88;1.60;;;;;;;8.92;100.00;98011.53;5046378;28;20540;-72
2022/12/22 06:52:55;;;;;;;4.10;0.90;;;;;;;8.89;100.00;97996.59;5030462;28;20026;-72
2022/12/22 06:55:21;;;;;;;2.17;1.02;;;;;;;8.74;100.00;97985.22;5030885;28;20017;-72
2022/12/22 06:57:46;;;;;;;3.72;0.90;;;;;;;8.76;100.00;97992.06;5030706;28;20037;-73
2022/12/22 07:00:12;;;;;;;8.55;1.15;;;;;;;8.72;100.00;97993.53;5029757;28;20017;-72
2022/12/22 07:02:37;;;;;;;3.45;1.00;;;;;;;8.75;100.00;97997.66;5028649;28;20033;-73
2022/12/22 07:05:03;;;;;;;12.05;1.67;;;;;;;8.65;100.00;97986.50;5027878;28;20052;-72
2022/12/22 07:07:28;;;;;;;5.55;1.20;;;;;;;8.66;100.00;98002.44;5023822;28;20034;-72
2022/12/22 07:09:54;;;;;;;5.93;1.20;;;;;;;8.70;100.00;97994.78;5041513;28;20033;-73
2022/12/22 07:12:20;;;;;;;4.18;1.30;;;;;;;8.76;100.00;98010.94;5032316;28;20104;-79
2022/12/22 07:14:45;;;;;;;6.75;1.27;;;;;;;8.65;100.00;97999.97;5054418;28;20113;-80
2022/12/22 07:17:12;;;;;;;7.47;1.77;;;;;;;8.79;100.00;98031.25;5030358;28;20101;-81
2022/12/22 07:19:37;;;;;;;4.03;1.23;;;;;;;8.61;100.00;98012.22;5039500;28;20021;-79
2022/12/22 07:22:02;;;;;;;8.80;2.25;;;;;;;8.70;100.00;98009.09;5037265;28;20103;-80
2022/12/22 07:24:28;;;;;;;5.03;1.45;;;;;;;8.73;100.00;98007.84;5037940;28;20025;-80
2022/12/22 07:26:53;;;;;;;6.07;1.25;;;;;;;8.62;100.00;97984.19;5051692;28;20483;-73
2022/12/22 07:29:19;;;;;;;9.35;1.45;;;;;;;8.65;100.00;98008.88;5036197;28;20029;-79
2022/12/22 07:31:44;;;;;;;8.07;2.28;;;;;;;8.59;100.00;97995.41;5049133;28;20029;-83
2022/12/22 07:34:10;;;;;;;10.57;2.03;;;;;;;8.47;100.00;97979.06;5048220;28;20481;-83
2022/12/22 07:36:35;;;;;;;9.18;2.13;;;;;;;8.64;100.00;98001.00;5033916;28;20483;-83
2022/12/22 07:39:01;;;;;;;3.80;1.33;;;;;;;8.91;100.00;98024.19;5045417;28;20112;-72
2022/12/22 07:44:10;;;;;;;5.53;1.20;;;;;;;9.10;100.00;97994.66;5034442;28;20037;-82
2022/12/22 07:46:37;;;;;;;5.57;1.35;;;;;;;9.32;100.00;98017.59;5040650;28;20029;-82
2022/12/22 07:51:48;;;;;;;6.07;1.48;;;;;;;9.26;100.00;98013.06;5033675;28;20041;-81
2022/12/22 07:54:15;;;;;;;7.00;1.83;;;;;;;9.39;100.00;98031.06;5038355;28;20595;-80
2022/12/22 07:56:40;;;;;;;10.05;1.67;;;;;;;9.38;100.00;98003.25;5035322;28;20518;-80
2022/12/22 07:59:06;;;;;;;9.77;2.10;;;;;;;9.35;100.00;97998.28;5039566;28;20021;-81
2022/12/22 08:01:32;;;;;;;6.10;1.38;;;;;;;9.43;100.00;97984.53;5036187;28;20028;-72
2022/12/22 08:03:58;;;;;;;6.35;1.77;;;;;;;9.51;100.00;97996.94;5020369;28;20020;-78
2022/12/22 08:06:24;;;;;;;6.13;1.63;;;;;;;9.65;100.00;97992.28;5031233;28;20037;-77
2022/12/22 08:08:50;;;;;;;5.22;1.45;;;;;;;9.69;100.00;98007.00;5031827;28;20037;-73
2022/12/22 08:11:15;;;;;;;8.75;1.40;;;;;;;9.75;100.00;97998.03;5034293;28;20033;-73
2022/12/22 08:13:42;;;;;;;7.05;2.05;;;;;;;9.98;100.00;98007.44;5035875;28;20460;-80
2022/12/22 08:16:10;;;;;;;4.03;0.95;;;;;;;10.12;100.00;97990.09;5036138;28;20029;-83
2022/12/22 08:18:37;;;;;;;5.00;1.30;;;;;;;10.01;100.00;97975.41;5049320;28;20529;-79
2022/12/22 08:21:03;;;;;;;4.97;0.95;;;;;;;10.08;100.00;97959.13;5039158;28;20064;-79
2022/12/22 08:23:29;;;;;;;5.32;1.42;;;;;;;10.09;100.00;97955.41;5030333;28;20025;-80
2022/12/22 08:26:03;;;;;;;7.75;1.48;;;;;;;10.22;100.00;97959.88;5031062;28;20479;-74
2022/12/22 08:28:32;;;;;;;8.52;1.20;;;;;;;10.35;100.00;97964.31;5023632;28;20030;-83
2022/12/22 08:30:59;;;;;;;5.75;1.33;;;;;;;10.29;100.00;97933.59;5029304;28;20030;-85
2022/12/22 08:33:24;;;;;;;5.00;1.35;;;;;;;10.35;100.00;97926.47;5042828;28;20518;-77
2022/12/22 08:35:50;;;;;;;5.25;1.40;;;;;;;10.39;100.00;97939.34;5034760;28;20034;-83
2022/12/22 08:38:15;;;;;;;7.10;2.10;;;;;;;10.48;100.00;97959.63;5037093;28;20028;-85
2022/12/22 08:40:42;;;;;;;4.60;1.40;;;;;;;10.40;100.00;97954.53;5036123;28;20018;-83
2022/12/22 08:43:08;;;;;;;4.68;1.17;;;;;;;10.10;100.00;97919.19;5048342;28;20489;-83
2022/12/22 08:45:34;;;;;;;6.78;1.00;;;;;;;10.28;100.00;97959.81;5045774;28;20108;-84
2022/12/22 08:47:59;;;;;;;5.68;1.13;;;;;;;10.32;100.00;97960.19;5034440;28;20021;-81
2022/12/22 08:50:25;;;;;;;5.90;1.48;;;;;;;10.02;100.00;97909.50;5036394;28;20036;-82
2022/12/22 08:52:50;;;;;;;3.00;1.27;;;;;;;10.33;100.00;97952.94;5031757;28;20017;-83
2022/12/22 08:55:15;;;;;;;5.70;1.25;;;;;;;10.12;100.00;97902.78;5034785;28;20105;-80
2022/12/22 08:57:41;;;;;;;5.20;1.40;;;;;;;10.45;100.00;97970.91;5047395;28;20085;-86
2022/12/22 09:00:08;;;;;;;6.30;1.08;;;;;;;10.46;100.00;97982.53;5034974;28;20368;-84
2022/12/22 09:02:34;;;;;;;5.22;1.13;;;;;;;10.05;100.00;97940.66;5027922;28;20491;-83
2022/12/22 09:05:00;;;;;;;4.28;1.30;;;;;;;10.27;100.00;97985.22;5030464;28;20475;-85
2022/12/22 09:07:25;;;;;;;4.45;1.15;;;;;;;9.97;100.00;97946.34;5047370;28;20041;-78
2022/12/22 09:09:51;;;;;;;6.50;1.02;;;;;;;10.17;100.00;97974.03;5026059;28;20033;-78
2022/12/22 09:12:16;;;;;;;4.63;1.52;;;;;;;10.31;100.00;97985.59;5031928;28;20447;-78
2022/12/22 09:14:42;;;;;;;6.93;1.25;;;;;;;10.17;100.00;97968.63;5024344;28;20507;-78
2022/12/22 09:17:07;;;;;;;4.35;1.15;;;;;;;10.31;100.00;97986.41;5032199;28;20356;-75
2022/12/22 09:19:33;;;;;;;8.68;1.40;;;;;;;10.41;100.00;97990.50;5043515;28;20387;-77
2022/12/22 09:21:58;;;;;;;7.28;1.52;;;;;;;10.21;100.00;97964.41;5032423;28;20407;-78
2022/12/22 09:24:24;;;;;;;4.30;0.80;;;;;;;10.37;100.00;97986.56;5031360;28;20029;-77
2022/12/22 09:26:49;;;;;;;5.03;1.40;;;;;;;10.23;100.00;97978.53;5029703;28;20029;-75
2022/12/22 09:29:14;;;;;;;6.82;1.50;;;;;;;10.12;100.00;98000.91;5024900;28;20034;-84
2022/12/22 09:31:40;;;;;;;7.13;1.42;;;;;;;9.86;100.00;97983.84;5029122;28;20045;-84
2022/12/22 09:34:06;;;;;;;9.70;1.27;;;;;;;9.75;100.00;98019.66;5031519;28;20018;-85
2022/12/22 09:36:32;;;;;;;1.98;0.68;;;;;;;9.62;100.00;98023.25;5036257;28;20022;-79
2022/12/22 09:38:58;;;;;;;7.15;1.00;;;;;;;9.52;100.00;98022.06;5035527;28;20026;-85
2022/12/22 09:41:33;;;;;;;10.48;1.10;;;;;;;9.54;100.00;98034.31;5026349;28;20042;-84
2022/12/22 09:44:04;;;;;;;6.88;1.33;;;;;;;9.55;100.00;98052.16;5028038;28;20017;-84
2022/12/22 09:46:35;;;;;;;5.95;0.88;;;;;;;9.53;100.00;98018.31;5033660;28;20503;-87
2022/12/22 09:49:01;;;;;;;8.95;1.13;;;;;;;9.61;100.00;98039.66;5023576;28;20089;-86
2022/12/22 09:51:28;;;;;;;10.90;1.38;;;;;;;9.74;100.00;98039.59;5032466;28;20022;-82
2022/12/22 09:53:59;;;;;;;5.88;0.68;;;;;;;9.65;100.00;98013.91;5032334;28;20028;-84
2022/12/22 09:56:27;;;;;;;5.72;0.93;;;;;;;9.88;100.00;98032.25;5051739;28;20395;-85
2022/12/22 09:58:53;;;;;;;6.38;0.93;;;;;;;9.58;100.00;98005.00;5052034;28;20018;-79
2022/12/22 10:01:40;;;;;;;4.65;1.27;;;;;;;9.81;100.00;98032.28;5043782;28;20057;-84
2022/12/22 10:04:36;;;;;;;7.22;0.80;;;;;;;9.72;100.00;98049.81;5053172;28;20014;-84
2022/12/22 10:07:27;;;;;;;7.88;1.00;;;;;;;9.56;100.00;98048.44;5030223;28;20021;-72
2022/12/22 10:09:52;;;;;;;5.70;1.02;;;;;;;9.41;100.00;98028.97;5030833;28;20479;-83
2022/12/22 10:12:20;;;;;;;6.68;1.15;;;;;;;9.36;100.00;98059.31;5037029;28;20025;-82
2022/12/22 10:14:48;;;;;;;4.10;0.73;;;;;;;9.30;100.00;98057.47;5033331;28;20435;-80
2022/12/22 10:17:16;;;;;;;6.07;0.75;;;;;;;9.26;100.00;98079.72;5026877;28;20029;-70
2022/12/22 10:19:42;;;;;;;8.90;1.10;;;;;;;9.11;100.00;98061.88;5038603;28;20036;-71
2022/12/22 10:22:19;;;;;;;9.32;1.20;;;;;;;9.19;100.00;98093.22;5027171;28;20025;-71
2022/12/22 10:24:45;;;;;;;4.35;0.90;;;;;;;9.18;100.00;98080.78;5041105;28;20026;-71
2022/12/22 10:27:10;;;;;;;5.03;1.10;;;;;;;9.18;100.00;98076.19;5019090;28;20034;-71
2022/12/22 10:29:36;;;;;;;4.45;1.25;;;;;;;9.16;100.00;98063.94;5023529;28;20025;-71
2022/12/22 10:32:15;;;;;;;5.63;1.20;;;;;;;9.14;100.00;98093.00;5021027;28;20495;-70
2022/12/22 10:35:04;;;;;;;6.93;1.38;;;;;;;9.11;100.00;98093.44;5024427;28;20053;-70
2022/12/22 10:37:33;;;;;;;6.10;1.23;;;;;;;9.06;100.00;98091.38;5021260;28;20021;-70
2022/12/22 10:39:58;;;;;;;9.43;1.30;;;;;;;9.03;100.00;98097.19;5024091;28;20025;-73
2022/12/22 10:42:24;;;;;;;6.80;1.70;;;;;;;8.96;100.00;98083.72;5022937;28;20509;-72
2022/12/22 10:45:24;;;;;;;3.47;0.90;;;;;;;9.05;100.00;98088.91;5022641;28;20033;-83
2022/12/22 10:47:52;;;;;;;8.35;1.20;;;;;;;9.09;100.00;98092.81;5045263;28;20030;-83
2022/12/22 10:50:19;;;;;;;7.90;1.03;;;;;;;9.19;100.00;98095.91;5047136;28;20511;-85
2022/12/22 10:52:51;;;;;;;7.07;1.27;;;;;;;9.02;100.00;98078.53;5031493;28;20022;-73
2022/12/22 10:55:28;;;;;;;5.10;0.68;;;;;;;8.96;100.00;98067.53;5025942;28;20387;-73
2022/12/22 10:58:08;;;;;;;4.72;0.93;;;;;;;9.15;100.00;98100.09;5014900;28;20104;-73
2022/12/22 11:00:34;;;;;;;4.32;0.80;;;;;;;9.16;100.00;98107.13;5019767;28;20643;-73
2022/12/22 11:03:01;;;;;;;6.32;1.10;;;;;;;9.12;100.00;98109.44;5025427;28;20029;-73
2022/12/22 11:05:27;;;;;;;5.57;1.25;;;;;;;9.10;100.00;98107.97;5030340;28;20029;-73
2022/12/22 11:07:54;;;;;;;6.50;1.75;;;;;;;9.09;100.00;98088.28;5024586;28;20416;-72
2022/12/22 11:10:37;;;;;;;7.75;1.75;;;;;;;9.21;100.00;98104.63;5019897;28;20036;-71
2022/12/22 11:13:08;;;;;;;6.65;1.02;;;;;;;9.32;100.00;98095.03;5035739;28;20034;-71
2022/12/22 11:15:48;;;;;;;6.05;1.08;;;;;;;9.29;100.00;98096.28;5021361;28;20029;-72
2022/12/22 11:18:20;;;;;;;8.18;2.00;;;;;;;9.37;100.00;98090.66;5026175;28;20021;-72
2022/12/22 11:21:13;;;;;;;5.15;1.10;;;;;;;9.41;100.00;98093.78;5030055;28;20029;-72
2022/12/22 11:23:58;;;;;;;4.60;1.30;;;;;;;9.42;100.00;98098.94;5017498;28;20437;-74
2022/12/22 11:26:42;;;;;;;2.25;0.85;;;;;;;9.44;100.00;98104.97;5021742;28;20035;-73
2022/12/22 11:29:29;;;;;;;4.85;1.00;;;;;;;9.39;100.00;98096.69;5017588;28;20487;-73
2022/12/22 11:32:30;;;;;;;4.70;0.85;;;;;;;9.44;100.00;98106.84;5037544;28;20376;-71
2022/12/22 11:35:22;;;;;;;2.95;0.65;;;;;;;9.44;100.00;98094.16;5019851;28;20029;-73
2022/12/22 11:38:22;;;;;;;11.07;1.25;;;;;;;9.27;100.00;98082.19;5030547;28;20040;-73
2022/12/22 11:40:58;;;;;;;2.38;0.77;;;;;;;9.50;100.00;98099.75;5012052;28;20496;-74
2022/12/22 11:43:26;;;;;;;4.28;0.98;;;;;;;9.49;100.00;98106.22;5012251;28;20060;-73
2022/12/22 11:46:10;;;;;;;5.93;0.70;;;;;;;9.53;100.00;98088.53;5020953;28;20076;-73
2022/12/22 11:48:41;;;;;;;4.95;1.00;;;;;;;9.60;100.00;98075.84;5023512;28;20143;-73
2022/12/22 11:51:33;;;;;;;7.03;1.98;;;;;;;9.65;100.00;98078.72;5027098;28;20467;-73
2022/12/22 11:54:20;;;;;;;5.13;2.33;;;;;;;9.95;100.00;98072.72;5016492;28;20116;-73
2022/12/22 11:57:02;;;;;;;6.15;1.52;;;;;;;10.09;100.00;98082.44;5026367;28;20451;-74
2022/12/22 11:59:59;;;;;;;4.18;1.00;;;;;;;10.16;100.00;98087.78;5025723;28;20029;-73
2022/12/22 12:02:37;;;;;;;5.13;0.80;;;;;;;10.23;100.00;98089.38;5025586;28;20041;-72
2022/12/22 12:05:23;;;;;;;3.38;0.65;;;;;;;10.37;100.00;98083.91;5028091;28;20111;-72
2022/12/22 12:08:28;;;;;;;5.13;0.60;;;;;;;10.44;100.00;98077.41;5020489;28;20053;-72
2022/12/22 12:11:07;;;;;;;3.83;0.70;;;;;;;10.46;100.00;98069.09;5036586;28;20022;-73
2022/12/22 12:13:40;;;;;;;;;;;;;;;10.59;100.00;98076.25;5028451;28;20501;-73
2022/12/22 12:16:19;;;;;;;2.13;0.30;;;;;;;10.66;100.00;98085.13;5024103;28;20024;-73
2022/12/22 12:19:04;;;;;;;1.35;0.50;;;;;;;10.59;100.00;98076.25;5015564;28;20037;-73
2022/12/22 12:21:48;;;;;;;1.55;0.50;;;;;;;10.71;100.00;98090.69;5028135;28;20054;-73
2022/12/22 12:24:47;;;;;;;4.15;0.50;;;;;;;10.79;100.00;98092.28;5025159;28;20037;-73
2022/12/22 12:27:28;;;;;;;1.00;0.50;;;;;;;10.82;100.00;98091.84;5025973;28;20029;-73
2022/12/22 12:30:21;;;;;;;1.92;0.43;;;;;;;10.79;100.00;98098.53;5032478;28;20032;-73
2022/12/22 12:32:55;;;;;;;2.28;0.38;;;;;;;10.81;100.00;98109.97;5017605;28;20599;-74
2022/12/22 12:35:35;;;;;;;5.65;0.60;;;;;;;10.70;100.00;98092.59;5024819;28;20477;-74
2022/12/22 12:38:09;;;;;;;3.80;0.82;;;;;;;10.77;100.00;98097.94;5036098;28;20037;-75
2022/12/22 12:40:42;;;;;;;4.93;1.35;;;;;;;10.71;100.00;98105.06;5028317;28;20033;-72
2022/12/22 12:43:11;;;;;;;3.55;0.60;;;;;;;10.81;100.00;98109.97;5025055;28;20484;-72
2022/12/22 12:45:47;;;;;;;6.47;1.00;;;;;;;10.87;100.00;98114.50;5024867;28;20418;-73
2022/12/22 12:48:19;;;;;;;3.53;0.60;;;;;;;10.94;100.00;98117.13;5029546;28;20037;-72
2022/12/22 12:50:44;;;;;;;3.47;0.60;;;;;;;10.87;100.00;98108.25;5031574;28;20117;-73
2022/12/22 12:53:10;;;;;;;2.72;0.60;;;;;;;10.81;100.00;98130.78;5014847;28;20980;-73
2022/12/22 12:55:51;;;;;;;4.00;0.55;;;;;;;10.79;100.00;98122.06;5018783;28;20033;-72
2022/12/22 12:58:36;;;;;;;4.82;0.80;;;;;;;10.67;100.00;98124.66;5038667;28;20080;-71
2022/12/22 13:01:09;;;;;;;3.83;0.63;;;;;;;10.60;100.00;98130.13;5014141;28;20137;-72
2022/12/22 13:03:36;;;;;;;6.05;0.70;;;;;;;10.71;100.00;98142.09;5030899;28;20029;-74
2022/12/22 13:06:05;;;;;;;4.75;0.98;;;;;;;10.67;100.00;98147.13;5026716;28;20060;-77
2022/12/22 13:08:32;;;;;;;7.50;1.10;;;;;;;10.58;100.00;98150.31;5029200;28;21010;-73
2022/12/22 13:10:57;;;;;;;4.75;0.80;;;;;;;10.60;100.00;98168.00;5023115;28;20029;-78
2022/12/22 13:13:23;;;;;;;4.78;1.25;;;;;;;10.69;100.00;98160.47;5033508;28;20038;-72
2022/12/22 13:16:01;;;;;;;2.38;0.45;;;;;;;10.89;100.00;98169.22;5032754;28;20030;-76
2022/12/22 13:18:29;;;;;;;8.88;0.95;;;;;;;11.11;100.00;98160.72;5018705;28;20037;-76
2022/12/22 13:21:01;;;;;;;4.93;0.70;;;;;;;10.92;100.00;98168.78;5041434;28;20029;-73
2022/12/22 13:23:29;;;;;;;5.78;1.17;;;;;;;10.62;100.00;98157.78;5026061;28;20026;-73
2022/12/22 13:26:01;;;;;;;4.97;0.80;;;;;;;10.58;100.00;98170.09;5030243;28;20033;-74
2022/12/22 13:28:26;;;;;;;6.22;0.82;;;;;;;10.52;100.00;98176.38;5022084;28;20036;-76
2022/12/22 13:30:59;;;;;;;9.98;1.00;;;;;;;10.56;100.00;98160.53;5019050;28;20030;-74
2022/12/22 13:33:29;;;;;;;7.20;1.30;;;;;;;10.83;100.00;98182.81;5034943;28;20116;-74
2022/12/22 13:35:56;;;;;;;5.13;0.60;;;;;;;10.76;100.00;98158.50;5022047;28;20091;-75
2022/12/22 13:38:29;;;;;;;6.25;0.88;;;;;;;10.86;100.00;98202.13;5022278;28;20056;-73
2022/12/22 13:41:01;;;;;;;5.18;1.05;;;;;;;10.70;100.00;98179.16;5019947;28;21941;-77
2022/12/22 13:43:28;;;;;;;10.38;1.50;;;;;;;10.78;100.00;98201.59;5024134;28;20021;-84
2022/12/22 13:45:56;;;;;;;5.50;1.00;;;;;;;10.62;100.00;98170.50;5017984;28;20029;-71
2022/12/22 13:48:31;;;;;;;6.40;1.08;;;;;;;10.83;100.00;98215.28;5024793;28;20104;-76
2022/12/22 13:51:01;;;;;;;9.07;1.85;;;;;;;10.66;100.00;98199.59;5029514;28;20033;-81
2022/12/22 13:53:41;;;;;;;5.13;1.17;;;;;;;10.79;100.00;98187.00;5020735;28;20024;-77
2022/12/22 13:56:20;;;;;;;10.00;1.05;;;;;;;10.93;100.00;98199.41;5029587;28;20017;-79
2022/12/22 13:58:46;;;;;;;8.30;1.20;;;;;;;11.07;100.00;98194.69;5023464;28;20112;-74
2022/12/22 14:01:15;;;;;;;8.70;1.30;;;;;;;11.46;100.00;98207.03;5028608;28;20040;-77
2022/12/22 14:03:45;;;;;;;;;;;;;;;11.34;100.00;98197.97;5025393;28;20025;-80
2022/12/22 14:06:19;;;;;;;;;;;;;;;11.44;100.00;98221.84;5031558;28;19913;-74
2022/12/22 14:08:44;;;;;;;3.08;1.20;;;;;;;11.22;100.00;98205.19;5032727;28;19925;-74
2022/12/22 14:11:10;;;;;;;5.90;1.00;;;;;;;11.02;100.00;98202.66;5030661;28;20025;-77
2022/12/22 14:13:38;;;;;;;7.68;0.88;;;;;;;10.78;100.00;98201.59;5020305;28;20498;-77
2022/12/22 14:16:04;;;;;;;7.90;1.60;;;;;;;10.89;100.00;98228.75;5022098;28;20025;-73
2022/12/22 14:18:32;;;;;;;7.05;1.23;;;;;;;10.80;100.00;98218.44;5018953;28;20390;-74
2022/12/22 14:20:58;;;;;;;5.57;0.88;;;;;;;10.67;100.00;98201.25;5027614;28;20029;-71
2022/12/22 14:23:38;;;;;;;4.80;1.02;;;;;;;10.77;100.00;98200.78;5020597;28;20163;-74
2022/12/22 14:26:06;;;;;;;6.20;0.90;;;;;;;10.79;100.00;98201.34;5016181;28;20748;-76
2022/12/22 14:28:49;;;;;;;4.88;0.98;;;;;;;10.60;100.00;98195.03;5018485;28;20068;-71
2022/12/22 14:31:15;;;;;;;6.32;1.77;;;;;;;10.60;100.00;98232.91;5027524;28;20025;-75
2022/12/22 14:33:50;;;;;;;7.72;0.98;;;;;;;10.43;100.00;98231.78;5023843;28;20025;-76
2022/12/22 14:36:17;;;;;;;5.85;1.10;;;;;;;10.42;100.00;98235.50;5025216;28;20510;-76
2022/12/22 14:38:48;;;;;;;9.23;1.15;;;;;;;10.38;100.00;98240.53;5027732;28;20041;-75
2022/12/22 14:41:42;;;;;;;6.18;1.27;;;;;;;10.27;100.00;98242.03;5022685;28;20079;-76
2022/12/22 14:44:28;;;;;;;9.18;1.20;;;;;;;10.26;100.00;98239.50;5026529;28;20101;-78
2022/12/22 14:47:11;;;;;;;9.35;1.42;;;;;;;10.21;100.00;98232.03;5023009;28;20112;-73
2022/12/22 14:49:48;;;;;;;9.65;1.33;;;;;;;10.26;100.00;98248.44;5022030;28;20025;-76
2022/12/22 14:52:22;;;;;;;4.82;1.13;;;;;;;10.25;100.00;98257.63;5017936;28;20038;-76
2022/12/22 14:54:50;;;;;;;6.13;0.98;;;;;;;10.19;100.00;98244.13;5023176;28;20018;-73
2022/12/22 14:57:43;;;;;;;9.25;1.30;;;;;;;10.26;100.00;98248.44;5025994;28;20034;-75
2022/12/22 15:00:20;;;;;;;5.35;1.17;;;;;;;10.27;100.00;98252.88;5016454;28;20111;-74
2022/12/22 15:02:55;;;;;;;8.85;1.27;;;;;;;10.18;100.00;98256.81;5017354;28;20120;-71
2022/12/22 15:05:36;;;;;;;10.63;1.33;;;;;;;10.02;100.00;98222.97;5012992;28;20041;-74
2022/12/22 15:08:04;;;;;;;4.82;1.20;;;;;;;10.09;100.00;98248.13;5028010;28;20033;-73
2022/12/22 15:10:37;;;;;;;11.57;1.83;;;;;;;10.13;100.00;98251.22;5027997;28;20754;-72
2022/12/22 15:13:06;;;;;;;6.32;1.13;;;;;;;10.12;100.00;98257.69;5027830;28;20072;-72
2022/12/22 15:15:32;;;;;;;8.05;1.48;;;;;;;10.08;100.00;98257.25;5019158;28;20488;-72
2022/12/22 15:17:58;;;;;;;8.27;1.67;;;;;;;10.00;100.00;98249.38;5032392;28;20056;-71
2022/12/22 15:20:25;;;;;;;7.32;1.45;;;;;;;9.91;100.00;98256.09;5032599;28;20519;-72
2022/12/22 15:22:51;;;;;;;12.23;1.67;;;;;;;9.82;100.00;98236.59;5031164;28;20033;-72
2022/12/22 15:25:22;;;;;;;10.57;1.73;;;;;;;9.86;100.00;98264.81;5026556;28;20029;-72